createdAt,value
2019-06-26T00:01:50.978Z,51.88
2019-06-26T00:04:26.110Z,48.75
2019-06-26T00:07:03.600Z,49.50
2019-06-26T00:09:38.500Z,52.53
2019-06-26T00:12:10.750Z,47.67
2019-06-26T00:14:45.843Z,47.05
2019-06-26T00:17:16.526Z,47.62
2019-06-26T00:19:48.193Z,48.60
2019-06-26T00:22:24.068Z,48.28
2019-06-26T00:24:54.738Z,48.25
2019-06-26T00:27:25.737Z,48.45
2019-06-26T00:29:59.777Z,45.55
2019-06-26T00:32:32.901Z,46.05
2019-06-26T00:35:08.958Z,45.03
2019-06-26T00:37:39.842Z,42.03
2019-06-26T00:40:13.987Z,43.60
2019-06-26T00:42:44.883Z,37.53
2019-06-26T00:45:22.610Z,36.65
2019-06-26T00:47:53.655Z,40.35
2019-06-26T00:50:25.768Z,40.73
2019-06-26T00:52:58.758Z,41.40
2019-06-26T00:55:31.306Z,40.48
2019-06-26T00:58:04.126Z,35.08
2019-06-26T01:00:40.370Z,34.23
2019-06-26T01:03:14.172Z,32.42
2019-06-26T01:05:46.583Z,28.83
2019-06-26T01:08:18.499Z,30.12
2019-06-26T01:10:52.219Z,29.15
2019-06-26T01:13:26.787Z,29.82
2019-06-26T01:15:58.955Z,28.65
2019-06-26T01:18:29.981Z,26.65
2019-06-26T01:21:00.794Z,26.00
2019-06-26T01:23:40.514Z,26.48
2019-06-26T01:26:11.168Z,26.65
2019-06-26T01:28:41.924Z,26.87
2019-06-26T01:31:14.267Z,24.90
2019-06-26T01:33:45.096Z,27.07
2019-06-26T01:36:15.797Z,26.15
2019-06-26T01:38:52.566Z,24.07
2019-06-26T01:41:24.039Z,24.60
2019-06-26T01:44:13.354Z,21.77
2019-06-26T01:46:36.394Z,24.77
2019-06-26T01:49:14.697Z,24.52
2019-06-26T01:51:48.776Z,23.18
2019-06-26T01:54:24.198Z,21.05
2019-06-26T01:56:57.927Z,22.00
2019-06-26T01:59:29.935Z,22.80
2019-06-26T02:02:11.730Z,21.00
2019-06-26T02:04:53.373Z,22.73
2019-06-26T02:07:20.760Z,22.50
2019-06-26T02:09:54.216Z,22.48
2019-06-26T02:13:12.663Z,20.60
2019-06-26T02:14:57.914Z,20.92
2019-06-26T02:17:35.368Z,18.62
2019-06-26T02:20:07.750Z,19.12
2019-06-26T02:22:44.009Z,19.43
2019-06-26T02:25:21.068Z,21.65
2019-06-26T02:27:53.238Z,19.85
2019-06-26T02:30:24.433Z,19.05
2019-06-26T02:32:58.257Z,20.17
2019-06-26T02:35:30.887Z,20.52
2019-06-26T02:38:07.524Z,19.67
2019-06-26T02:40:43.062Z,18.27
2019-06-26T02:43:14.192Z,20.48
2019-06-26T02:45:45.153Z,21.12
2019-06-26T02:48:22.251Z,22.35
2019-06-26T02:50:53.195Z,22.42
2019-06-26T02:53:26.949Z,22.15
2019-06-26T02:56:01.489Z,23.90
2019-06-26T02:58:33.991Z,25.23
2019-06-26T03:01:07.354Z,23.15
2019-06-26T03:03:40.764Z,23.70
2019-06-26T03:06:14.485Z,23.52
2019-06-26T03:08:45.345Z,23.32
2019-06-26T03:11:17.816Z,20.70
2019-06-26T03:13:50.613Z,18.32
2019-06-26T03:16:27.934Z,17.05
2019-06-26T03:19:00.141Z,16.75
2019-06-26T03:21:38.739Z,15.68
2019-06-26T03:24:18.484Z,15.65
2019-06-26T03:26:49.351Z,13.47
2019-06-26T03:29:24.704Z,14.60
2019-06-26T03:31:58.958Z,13.20
2019-06-26T03:34:31.080Z,13.13
2019-06-26T03:37:01.726Z,12.75
2019-06-26T03:39:32.317Z,13.32
2019-06-26T03:42:02.765Z,12.80
2019-06-26T03:44:34.545Z,12.53
2019-06-26T03:47:05.090Z,13.22
2019-06-26T03:49:35.701Z,13.55
2019-06-26T03:52:10.820Z,13.85
2019-06-26T03:54:41.246Z,15.35
2019-06-26T03:57:11.843Z,15.05
2019-06-26T03:59:42.301Z,15.98
2019-06-26T04:02:13.547Z,16.27
2019-06-26T04:05:04.296Z,17.95
2019-06-26T04:07:36.627Z,17.10
2019-06-26T04:10:10.174Z,18.65
2019-06-26T04:12:46.598Z,18.32
2019-06-26T04:15:17.427Z,18.50
2019-06-26T04:17:51.994Z,17.87
2019-06-26T04:20:26.889Z,17.70
2019-06-26T04:22:59.765Z,17.98
2019-06-26T04:25:37.880Z,18.52
2019-06-26T04:28:08.072Z,19.48
2019-06-26T04:30:39.611Z,20.77
2019-06-26T04:33:10.127Z,21.97
2019-06-26T04:35:42.142Z,20.97
2019-06-26T04:38:12.972Z,23.45
2019-06-26T04:40:44.301Z,22.98
2019-06-26T04:43:15.329Z,21.17
2019-06-26T04:45:57.688Z,22.40
2019-06-26T04:48:17.966Z,21.55
2019-06-26T04:50:50.832Z,19.98
2019-06-26T04:53:21.192Z,19.15
2019-06-26T04:55:53.360Z,18.00
2019-06-26T04:58:32.713Z,18.00
2019-06-26T05:01:05.731Z,17.80
2019-06-26T05:03:40.847Z,18.55
2019-06-26T05:06:11.810Z,19.17
2019-06-26T05:08:44.575Z,18.07
2019-06-26T05:11:18.628Z,17.15
2019-06-26T05:13:55.597Z,15.25
2019-06-26T05:16:31.493Z,14.20
2019-06-26T05:19:02.236Z,16.55
2019-06-26T05:21:33.016Z,15.25
2019-06-26T05:24:03.326Z,14.90
2019-06-26T05:26:36.062Z,15.13
2019-06-26T05:29:09.090Z,14.77
2019-06-26T05:31:39.589Z,14.40
2019-06-26T05:34:13.736Z,15.58
2019-06-26T05:36:47.126Z,14.85
2019-06-26T05:39:24.120Z,15.40
2019-06-26T05:41:54.939Z,13.32
2019-06-26T05:44:27.390Z,13.32
2019-06-26T05:47:00.833Z,14.63
2019-06-26T05:49:35.325Z,14.83
2019-06-26T05:52:07.691Z,14.57
2019-06-26T05:54:38.508Z,14.25
2019-06-26T05:57:09.021Z,12.50
2019-06-26T05:59:40.182Z,14.75
2019-06-26T06:02:13.171Z,15.45
2019-06-26T06:04:45.928Z,14.90
2019-06-26T06:07:16.401Z,16.75
2019-06-26T06:09:47.252Z,17.10
2019-06-26T06:12:17.820Z,17.42
2019-06-26T06:14:48.186Z,17.33
2019-06-26T06:17:20.557Z,17.45
2019-06-26T06:19:50.778Z,16.12
2019-06-26T06:22:20.956Z,17.80
2019-06-26T06:24:51.149Z,17.12
2019-06-26T06:27:21.553Z,16.77
2019-06-26T06:29:51.781Z,16.65
2019-06-26T06:32:21.944Z,18.48
2019-06-26T06:34:52.155Z,16.93
2019-06-26T06:37:22.305Z,17.52
2019-06-26T06:39:52.494Z,17.57
2019-06-26T06:42:22.695Z,16.62
2019-06-26T06:44:53.371Z,17.02
2019-06-26T06:47:26.469Z,17.07
2019-06-26T06:49:56.637Z,16.55
2019-06-26T06:52:26.802Z,17.15
2019-06-26T06:54:58.364Z,16.95
2019-06-26T06:57:28.579Z,16.65
2019-06-26T06:59:58.794Z,17.32
2019-06-26T07:02:28.999Z,17.73
2019-06-26T07:04:59.234Z,19.67
2019-06-26T07:07:29.408Z,20.73
2019-06-26T07:09:59.637Z,19.37
2019-06-26T07:12:29.913Z,19.17
2019-06-26T07:15:00.125Z,19.87
2019-06-26T07:17:32.519Z,20.88
2019-06-26T07:20:02.863Z,20.60
2019-06-26T07:22:34.300Z,19.07
2019-06-26T07:25:07.126Z,19.30
2019-06-26T07:27:38.615Z,19.02
2019-06-26T07:30:09.110Z,19.27
2019-06-26T07:32:39.838Z,18.27
2019-06-26T07:35:10.138Z,19.27
2019-06-26T07:37:42.050Z,19.12
2019-06-26T07:40:12.817Z,18.70
2019-06-26T07:42:42.983Z,19.10
2019-06-26T07:45:15.432Z,19.03
2019-06-26T07:47:45.944Z,19.30
2019-06-26T07:50:16.518Z,20.32
2019-06-26T07:52:46.855Z,17.95
2019-06-26T07:55:17.123Z,17.65
2019-06-26T07:57:47.348Z,17.07
2019-06-26T08:00:17.917Z,18.92
2019-06-26T08:02:48.257Z,17.67
2019-06-26T08:05:20.165Z,18.73
2019-06-26T08:07:50.306Z,17.63
2019-06-26T08:10:21.119Z,15.20
2019-06-26T08:12:53.104Z,17.93
2019-06-26T08:15:23.399Z,16.03
2019-06-26T08:18:00.757Z,15.23
2019-06-26T08:20:25.518Z,14.20
2019-06-26T08:22:55.676Z,13.10
2019-06-26T08:25:25.851Z,13.90
2019-06-26T08:27:56.096Z,13.20
2019-06-26T08:30:27.613Z,13.90
2019-06-26T08:32:57.929Z,12.37
2019-06-26T08:35:28.081Z,12.40
2019-06-26T08:38:09.824Z,11.15
2019-06-26T08:40:30.238Z,10.65
2019-06-26T08:43:00.472Z,9.80
2019-06-26T08:45:30.651Z,9.15
2019-06-26T08:48:16.886Z,9.38
2019-06-26T08:50:34.393Z,9.08
2019-06-26T08:53:04.660Z,8.35
2019-06-26T08:55:34.771Z,9.03
2019-06-26T08:58:05.249Z,8.23
2019-06-26T09:00:36.566Z,7.92
2019-06-26T09:03:08.279Z,7.12
2019-06-26T09:05:47.925Z,6.30
2019-06-26T09:08:10.930Z,7.22
2019-06-26T09:10:44.909Z,6.10
2019-06-26T09:13:14.055Z,7.47
2019-06-26T09:15:44.281Z,6.80
2019-06-26T09:18:14.365Z,6.05
2019-06-26T09:20:44.734Z,6.12
2019-06-26T09:23:15.837Z,6.75
2019-06-26T09:25:45.947Z,6.62
2019-06-26T09:28:17.281Z,7.03
2019-06-26T09:30:47.479Z,6.47
2019-06-26T09:33:17.698Z,6.12
2019-06-26T09:35:47.907Z,5.72
2019-06-26T09:38:18.170Z,5.47
2019-06-26T09:40:48.363Z,5.17
2019-06-26T09:43:20.209Z,4.78
2019-06-26T09:45:50.643Z,5.67
2019-06-26T09:48:20.891Z,5.22
2019-06-26T09:50:51.139Z,5.12
2019-06-26T09:53:21.394Z,4.80
2019-06-26T09:55:51.586Z,4.25
2019-06-26T09:58:21.734Z,4.47
2019-06-26T10:00:51.940Z,5.13
2019-06-26T10:03:22.159Z,4.70
2019-06-26T10:05:52.261Z,5.05
2019-06-26T10:08:22.460Z,4.65
2019-06-26T10:10:52.663Z,4.85
2019-06-26T10:13:22.707Z,4.65
2019-06-26T10:15:52.986Z,4.35
2019-06-26T10:18:23.180Z,4.10
2019-06-26T10:20:53.425Z,5.22
2019-06-26T10:23:23.624Z,5.03
2019-06-26T10:25:53.833Z,3.83
2019-06-26T10:28:24.194Z,4.95
2019-06-26T10:30:54.336Z,5.50
2019-06-26T10:33:24.653Z,4.30
2019-06-26T10:35:55.822Z,4.22
2019-06-26T10:38:27.903Z,4.17
2019-06-26T10:40:58.123Z,3.50
2019-06-26T10:43:28.365Z,4.33
2019-06-26T10:45:58.853Z,3.95
2019-06-26T10:48:29.175Z,3.83
2019-06-26T10:51:01.832Z,3.60
2019-06-26T10:53:32.027Z,3.83
2019-06-26T10:56:02.272Z,4.08
2019-06-26T10:58:32.502Z,4.40
2019-06-26T11:01:02.877Z,4.55
2019-06-26T11:03:33.154Z,4.72
2019-06-26T11:06:03.506Z,4.08
2019-06-26T11:08:36.241Z,5.15
2019-06-26T11:11:06.413Z,3.70
2019-06-26T11:13:36.786Z,3.50
2019-06-26T11:16:08.100Z,4.35
2019-06-26T11:18:38.489Z,4.80
2019-06-26T11:21:08.618Z,3.85
2019-06-26T11:23:38.788Z,3.37
2019-06-26T11:26:09.025Z,3.27
2019-06-26T11:28:39.190Z,4.08
2019-06-26T11:31:09.339Z,3.33
2019-06-26T11:33:39.480Z,3.55
2019-06-26T11:36:09.568Z,4.55
2019-06-26T11:38:40.872Z,3.92
2019-06-26T11:41:12.202Z,3.85
2019-06-26T11:43:42.479Z,4.37
2019-06-26T11:46:12.614Z,3.62
2019-06-26T11:48:42.767Z,3.55
2019-06-26T11:51:12.905Z,3.77
2019-06-26T11:53:43.129Z,3.20
2019-06-26T11:56:13.763Z,3.20
2019-06-26T11:58:44.158Z,2.65
2019-06-26T12:01:14.387Z,3.02
2019-06-26T12:03:44.623Z,2.98
2019-06-26T12:06:18.881Z,3.55
2019-06-26T12:08:46.750Z,3.08
2019-06-26T12:11:17.061Z,2.70
2019-06-26T12:13:47.270Z,2.35
2019-06-26T12:16:19.871Z,2.40
2019-06-26T12:18:54.201Z,2.33
2019-06-26T12:21:29.404Z,6.05
2019-06-26T12:23:59.715Z,2.83
2019-06-26T12:26:32.155Z,2.40
2019-06-26T12:29:06.868Z,2.55
2019-06-26T12:31:41.293Z,2.37
2019-06-26T12:34:15.637Z,2.70
2019-06-26T12:37:08.446Z,2.42
2019-06-26T12:39:48.464Z,2.37
2019-06-26T12:42:26.584Z,2.58
2019-06-26T12:44:57.578Z,2.90
2019-06-26T12:47:37.094Z,2.55
2019-06-26T12:50:11.785Z,2.50
2019-06-26T12:52:59.523Z,2.10
2019-06-26T12:55:43.514Z,2.27
2019-06-26T12:58:19.753Z,2.30
2019-06-26T13:00:50.604Z,2.83
2019-06-26T13:03:25.111Z,2.20
2019-06-26T13:05:59.199Z,2.25
2019-06-26T13:08:30.096Z,2.12
2019-06-26T13:11:01.036Z,2.47
2019-06-26T13:13:39.813Z,2.87
2019-06-26T13:16:12.990Z,2.12
2019-06-26T13:18:51.396Z,2.35
2019-06-26T13:21:30.162Z,2.58
2019-06-26T13:24:01.375Z,2.45
2019-06-26T13:26:37.113Z,2.30
2019-06-26T13:29:14.934Z,2.40
2019-06-26T13:31:52.451Z,2.25
2019-06-26T13:34:33.852Z,2.30
2019-06-26T13:37:07.503Z,2.47
2019-06-26T13:39:49.335Z,2.20
2019-06-26T13:42:25.356Z,2.15
2019-06-26T13:44:59.571Z,2.62
2019-06-26T13:47:44.643Z,2.62
2019-06-26T13:50:17.383Z,2.20
2019-06-26T13:52:48.280Z,2.75
2019-06-26T13:56:03.426Z,2.37
2019-06-26T13:58:35.836Z,1.87
2019-06-26T14:01:09.751Z,2.10
2019-06-26T14:03:44.089Z,2.08
2019-06-26T14:06:24.091Z,2.40
2019-06-26T14:08:57.812Z,1.98
2019-06-26T14:11:32.355Z,2.00
2019-06-26T14:14:05.314Z,1.95
2019-06-26T14:16:35.540Z,1.82
2019-06-26T14:19:05.672Z,1.92
2019-06-26T14:21:36.137Z,2.15
2019-06-26T14:24:06.342Z,1.70
2019-06-26T14:26:36.537Z,2.37
2019-06-26T14:29:20.002Z,2.33
2019-06-26T14:31:38.716Z,2.15
2019-06-26T14:34:08.967Z,2.85
2019-06-26T14:36:39.288Z,2.00
2019-06-26T14:39:11.258Z,2.00
2019-06-26T14:41:52.147Z,1.85
2019-06-26T14:44:22.444Z,2.45
2019-06-26T14:46:52.706Z,2.70
2019-06-26T14:49:22.974Z,3.22
2019-06-26T14:51:54.398Z,2.92
2019-06-26T14:54:24.692Z,2.70
2019-06-26T14:57:14.047Z,2.67
2019-06-26T14:59:44.481Z,3.25
2019-06-26T15:02:14.979Z,2.50
2019-06-26T15:04:46.247Z,2.10
2019-06-26T15:07:19.112Z,2.30
2019-06-26T15:09:52.332Z,1.75
2019-06-26T15:12:22.925Z,2.35
2019-06-26T15:14:56.185Z,2.65
2019-06-26T15:17:26.683Z,2.22
2019-06-26T15:19:57.310Z,2.42
2019-06-26T15:22:27.531Z,2.42
2019-06-26T15:24:57.821Z,2.40
2019-06-26T15:33:30.225Z,2.65
2019-06-26T15:43:12.506Z,3.00
2019-06-26T15:46:52.906Z,3.10
2019-06-26T15:49:57.529Z,2.17
2019-06-26T15:53:39.981Z,2.30
2019-06-26T15:56:44.304Z,2.90
2019-06-26T16:00:18.799Z,2.33
2019-06-26T16:03:26.522Z,2.52
2019-06-26T16:06:22.784Z,2.02
2019-06-26T16:09:59.021Z,2.33
2019-06-26T16:13:04.778Z,2.40
2019-06-26T16:15:45.443Z,2.05
2019-06-26T16:18:48.082Z,8.55
2019-06-26T16:31:43.339Z,2.67
2019-06-26T16:34:22.779Z,2.52
2019-06-26T16:37:11.637Z,2.52
2019-06-26T16:40:13.106Z,2.47
2019-06-26T16:42:53.150Z,2.33
2019-06-26T16:45:52.982Z,1.90
2019-06-26T16:48:41.935Z,2.10
2019-06-26T16:51:49.495Z,2.17
2019-06-26T16:54:53.323Z,1.98
2019-06-26T16:57:47.255Z,1.75
2019-06-26T18:14:04.935Z,2.17
2019-06-26T18:19:11.216Z,2.53
2019-06-26T18:21:32.580Z,2.20
2019-06-26T18:24:16.056Z,1.80
2019-06-26T18:43:27.243Z,2.00
2019-06-26T18:54:35.313Z,2.03
2019-06-26T19:28:02.562Z,2.42
2019-06-26T19:30:40.833Z,2.00
2019-06-26T19:33:07.814Z,2.17
2019-06-26T19:35:38.195Z,3.10
2019-06-26T19:38:14.542Z,2.75
2019-06-26T19:40:45.136Z,2.45
2019-06-26T19:43:33.483Z,2.50
2019-06-26T19:46:03.953Z,2.45
2019-06-26T19:49:04.156Z,2.92
2019-06-26T19:51:53.447Z,2.33
2019-06-26T19:54:31.043Z,2.50
2019-06-26T19:56:57.868Z,2.00
2019-06-26T19:59:32.594Z,2.55
2019-06-26T20:02:10.493Z,2.30
2019-06-26T20:04:48.148Z,2.55
2019-06-26T20:07:38.163Z,2.83
2019-06-26T20:10:10.999Z,2.80
2019-06-26T20:12:45.856Z,2.80
2019-06-26T20:15:20.620Z,2.97
2019-06-26T20:17:52.254Z,2.47
2019-06-26T20:20:26.047Z,3.43
2019-06-26T20:22:59.368Z,2.85
2019-06-26T20:25:32.806Z,2.47
2019-06-26T20:28:03.028Z,2.80
2019-06-26T20:30:34.338Z,3.67
2019-06-26T20:33:04.577Z,3.13
2019-06-26T20:35:44.065Z,2.80
2019-06-26T20:38:18.767Z,3.30
2019-06-26T20:41:04.991Z,2.83
2019-06-26T20:43:48.891Z,2.83
2019-06-26T20:46:30.849Z,2.58
2019-06-26T20:49:01.460Z,2.50
2019-06-26T20:51:36.638Z,2.58
2019-06-26T20:54:12.945Z,2.90
2019-06-26T20:56:44.356Z,2.95
2019-06-26T20:59:19.317Z,2.77
2019-06-26T21:01:52.258Z,3.02
2019-06-26T21:04:24.082Z,3.25
2019-06-26T21:06:54.355Z,2.87
2019-06-26T21:09:29.154Z,3.47
2019-06-26T21:11:59.872Z,2.93
2019-06-26T21:14:35.270Z,2.93
2019-06-26T21:17:10.672Z,3.25
2019-06-26T21:19:42.275Z,3.00
2019-06-26T21:22:12.582Z,3.17
2019-06-26T21:24:44.167Z,2.87
2019-06-26T21:27:18.266Z,3.07
2019-06-26T21:29:48.629Z,3.67
2019-06-26T21:32:18.948Z,2.95
2019-06-26T21:34:49.325Z,3.60
2019-06-26T21:37:19.678Z,3.20
2019-06-26T21:39:49.839Z,3.00
2019-06-26T21:42:21.097Z,3.93
2019-06-26T21:44:51.269Z,3.13
2019-06-26T21:47:22.763Z,3.37
2019-06-26T21:49:52.961Z,3.37
2019-06-26T21:52:23.574Z,3.13
2019-06-26T21:54:54.886Z,3.83
2019-06-26T21:57:44.530Z,3.10
2019-06-26T22:00:34.630Z,3.23
2019-06-26T22:03:26.138Z,11.57
2019-06-26T22:06:13.535Z,7.37
2019-06-26T22:08:57.637Z,5.87
2019-06-26T22:11:28.904Z,8.63
2019-06-26T22:13:59.233Z,6.43
2019-06-26T22:16:29.635Z,3.60
2019-06-26T22:19:00.974Z,4.13
2019-06-26T22:21:31.205Z,7.00
2019-06-26T22:24:01.414Z,4.80
2019-06-26T22:26:31.734Z,3.43
2019-06-26T22:29:02.023Z,3.63
2019-06-26T22:31:32.240Z,3.80
2019-06-26T22:34:02.443Z,3.03
2019-06-26T22:36:32.622Z,3.47
2019-06-26T22:39:02.828Z,3.80
2019-06-26T22:41:36.990Z,3.13
2019-06-26T22:44:07.287Z,3.70
2019-06-26T22:46:38.878Z,3.63
2019-06-26T22:49:09.080Z,2.90
2019-06-26T22:51:39.224Z,3.70
2019-06-26T22:54:09.559Z,3.27
2019-06-26T22:56:41.086Z,3.63
2019-06-26T22:59:14.432Z,3.53
2019-06-26T23:01:44.670Z,3.10
2019-06-26T23:04:14.868Z,3.63
2019-06-26T23:06:47.192Z,3.58
2019-06-26T23:09:17.403Z,3.63
2019-06-26T23:11:47.604Z,3.40
2019-06-26T23:14:17.941Z,3.33
2019-06-26T23:16:48.102Z,3.60
2019-06-26T23:19:18.311Z,3.30
2019-06-26T23:21:48.454Z,3.13
2019-06-26T23:24:20.111Z,2.97
2019-06-26T23:26:51.382Z,3.00
2019-06-26T23:29:22.088Z,3.10
2019-06-26T23:31:52.358Z,3.40
2019-06-26T23:34:22.588Z,3.00
2019-06-26T23:36:53.848Z,2.90
2019-06-26T23:39:24.829Z,3.77
2019-06-26T23:41:55.099Z,3.27
2019-06-26T23:44:25.363Z,2.90
2019-06-26T23:46:55.682Z,2.80
2019-06-26T23:49:25.947Z,3.17
2019-06-26T23:51:56.097Z,4.20
2019-06-26T23:54:26.334Z,3.83
2019-06-26T23:56:56.494Z,3.07
2019-06-26T23:59:26.733Z,2.80
